Time;durP1;ratioP1;P1;durP2;ratioP2;P2;SDS_P1;SDS_P2;PMS_P1;PMS_P2;Temp;Humidity;BMP_temperature;BMP_pressure;BME280_temperature;BME280_humidity;BME280_pressure;Samples;Min_cycle;Max_cycle;Signal;HPM_P1;HPM_P2
2022/05/11 00:01:34;;;;;;;0.10;0.10;;;;;;;18.06;50.64;101385.00;5045972;28;20051;-83
2022/05/11 00:04:02;;;;;;;0.20;0.20;;;;;;;18.06;50.67;101382.34;5046357;28;20120;-83
2022/05/11 00:06:29;;;;;;;0.38;0.38;;;;;;;18.07;50.66;101373.34;5036120;28;20039;-83
2022/05/11 00:08:56;;;;;;;0.00;0.00;;;;;;;18.05;51.29;101372.53;5041480;28;20034;-83
2022/05/11 00:11:26;;;;;;;0.10;0.10;;;;;;;18.02;51.66;101367.31;5046278;28;20064;-83
2022/05/11 00:13:53;;;;;;;1.55;1.27;;;;;;;18.00;51.64;101374.53;5045014;28;20097;-83
2022/05/11 00:16:19;;;;;;;0.08;0.08;;;;;;;17.98;51.93;101368.41;5040760;28;20037;-83
2022/05/11 00:18:45;;;;;;;0.00;0.00;;;;;;;17.99;51.87;101371.94;5040259;28;20048;-83
2022/05/11 00:21:11;;;;;;;0.03;0.03;;;;;;;17.95;51.92;101360.47;5075708;22;20071;-82
2022/05/11 00:23:38;;;;;;;0.05;0.05;;;;;;;17.91;52.52;101362.38;5053160;28;20041;-82
2022/05/11 00:26:05;;;;;;;0.00;0.00;;;;;;;17.93;52.09;101354.25;5056799;28;20029;-82
2022/05/11 00:28:32;;;;;;;0.00;0.00;;;;;;;17.92;52.00;101355.22;5058592;28;20123;-81
2022/05/11 00:30:58;;;;;;;1.00;1.00;;;;;;;17.90;51.98;101355.25;5058442;28;20059;-82
2022/05/11 00:33:24;;;;;;;0.00;0.00;;;;;;;17.93;51.25;101351.56;5057790;28;20033;-81
2022/05/11 00:35:52;;;;;;;0.05;0.05;;;;;;;17.90;51.56;101352.59;5057891;28;20041;-81
2022/05/11 00:38:20;;;;;;;3.25;0.73;;;;;;;17.90;51.38;101346.38;5054745;28;20025;-81
2022/05/11 00:40:50;;;;;;;0.10;0.10;;;;;;;17.86;51.38;101345.63;5056266;28;20031;-82
2022/05/11 00:43:30;;;;;;;0.10;0.10;;;;;;;17.81;51.34;101353.00;5057854;28;20112;-81
2022/05/11 00:46:13;;;;;;;0.00;0.00;;;;;;;17.94;50.97;101353.34;5052827;28;20029;-81
2022/05/11 00:51:34;;;;;;;0.08;0.08;;;;;;;17.92;51.16;101344.50;5051719;28;20029;-82
2022/05/11 00:54:03;;;;;;;0.40;0.40;;;;;;;17.92;50.67;101334.63;5050532;28;20056;-82
2022/05/11 00:56:29;;;;;;;0.10;0.10;;;;;;;17.87;51.18;101336.66;5055907;28;20439;-82
2022/05/11 00:59:00;;;;;;;0.00;0.00;;;;;;;17.85;51.21;101332.28;5056666;28;20032;-82
2022/05/11 01:01:26;;;;;;;0.00;0.00;;;;;;;17.90;51.02;101330.28;5056647;28;20060;-81
2022/05/11 01:04:00;;;;;;;0.10;0.10;;;;;;;17.86;51.29;101334.03;5055140;28;20129;-81
2022/05/11 01:06:30;;;;;;;0.00;0.00;;;;;;;17.90;50.80;101335.63;5055342;28;20057;-81
2022/05/11 01:08:58;;;;;;;0.10;0.10;;;;;;;17.88;51.54;101326.78;5054423;28;20509;-81
2022/05/11 01:11:24;;;;;;;0.10;0.10;;;;;;;17.83;51.48;101326.13;5055618;28;20396;-81
2022/05/11 01:13:51;;;;;;;0.00;0.00;;;;;;;17.87;51.03;101325.94;5056190;28;20036;-81
2022/05/11 01:16:17;;;;;;;0.10;0.10;;;;;;;17.90;51.08;101319.56;5055059;28;20024;-81
2022/05/11 01:18:44;;;;;;;0.10;0.10;;;;;;;17.88;51.26;101318.75;5047547;28;20136;-82
2022/05/11 01:21:10;;;;;;;0.13;0.13;;;;;;;17.88;51.39;101316.06;5049098;28;20025;-82
2022/05/11 01:26:18;;;;;;;0.08;0.08;;;;;;;17.90;51.24;101303.47;5091874;27;20340;-81
2022/05/11 01:28:47;;;;;;;0.10;0.10;;;;;;;17.92;51.38;101305.16;5092337;28;20028;-83
2022/05/11 01:31:15;;;;;;;0.00;0.00;;;;;;;17.94;51.50;101311.34;5088233;28;20024;-82
2022/05/11 01:33:45;;;;;;;0.00;0.00;;;;;;;17.96;51.33;101308.59;5087910;28;20039;-82
2022/05/11 01:39:03;;;;;;;0.00;0.00;;;;;;;17.97;51.66;101304.09;5076318;28;20411;-82
2022/05/11 01:41:36;;;;;;;0.00;0.00;;;;;;;17.91;51.78;101292.69;5061912;28;20086;-81
2022/05/11 01:44:06;;;;;;;0.00;0.00;;;;;;;17.87;52.05;101290.19;5049910;28;20033;-82
2022/05/11 01:46:33;;;;;;;0.30;0.30;;;;;;;17.89;51.74;101285.66;5054765;28;20100;-82
2022/05/11 01:49:00;;;;;;;0.32;0.32;;;;;;;17.86;51.95;101291.16;5055259;28;20041;-82
2022/05/11 01:51:26;;;;;;;0.10;0.10;;;;;;;17.88;51.81;101286.56;5055559;28;20052;-82
2022/05/11 01:53:53;;;;;;;0.00;0.00;;;;;;;17.82;52.14;101284.16;5055955;28;20041;-82
2022/05/11 01:56:21;;;;;;;0.00;0.00;;;;;;;17.85;51.91;101287.59;5050854;28;20440;-81
2022/05/11 01:58:49;;;;;;;0.00;0.00;;;;;;;17.86;51.43;101283.13;5044292;28;20061;-81
2022/05/11 02:01:20;;;;;;;0.00;0.00;;;;;;;17.86;51.60;101286.66;5060940;28;20341;-82
2022/05/11 02:03:47;;;;;;;0.00;0.00;;;;;;;17.79;51.45;101286.06;5065625;28;20393;-82
2022/05/11 02:09:02;;;;;;;0.10;0.10;;;;;;;17.90;51.43;101295.44;5044207;28;20132;-82
2022/05/11 02:11:28;;;;;;;0.00;0.00;;;;;;;17.76;51.14;101288.84;5052104;28;20635;-81
2022/05/11 02:13:56;;;;;;;2.30;1.10;;;;;;;17.85;50.99;101286.72;5061444;28;20524;-81
2022/05/11 02:16:23;;;;;;;1.08;0.90;;;;;;;17.86;51.08;101283.97;5041251;28;20041;-81
2022/05/11 02:18:50;;;;;;;0.10;0.10;;;;;;;17.85;51.13;101289.41;5059157;28;20028;-82
2022/05/11 02:21:16;;;;;;;0.00;0.00;;;;;;;17.86;51.23;101286.66;5066316;28;20121;-81
2022/05/11 02:23:42;;;;;;;0.00;0.00;;;;;;;17.79;51.15;101278.00;5054640;28;20041;-83
2022/05/11 02:26:10;;;;;;;0.30;0.30;;;;;;;17.78;51.19;101278.06;5061452;28;20040;-82
2022/05/11 02:28:37;;;;;;;0.10;0.10;;;;;;;17.71;51.01;101277.47;5063977;28;20052;-82
2022/05/11 02:31:03;;;;;;;0.00;0.00;;;;;;;17.78;50.71;101268.22;5062936;28;20063;-82
2022/05/11 02:33:29;;;;;;;0.00;0.00;;;;;;;17.78;50.21;101272.69;5064290;28;20029;-82
2022/05/11 02:35:56;;;;;;;0.00;0.00;;;;;;;17.85;50.04;101270.63;5080429;28;20037;-82
2022/05/11 02:38:27;;;;;;;0.00;0.00;;;;;;;17.88;49.49;101259.78;5056268;28;20120;-82
2022/05/11 02:40:54;;;;;;;0.52;0.52;;;;;;;17.87;49.01;101261.59;5047832;28;20112;-82
2022/05/11 02:43:21;;;;;;;2.38;1.85;;;;;;;17.81;49.09;101253.81;5058650;28;20037;-82
2022/05/11 02:45:49;;;;;;;0.10;0.10;;;;;;;17.84;48.72;101258.16;5059865;28;20029;-82
2022/05/11 02:48:20;;;;;;;0.10;0.10;;;;;;;17.92;48.71;101253.34;5057687;28;20032;-82
2022/05/11 02:50:50;;;;;;;0.05;0.05;;;;;;;17.90;48.75;101249.88;5048889;28;20041;-82
2022/05/11 02:53:17;;;;;;;0.47;0.47;;;;;;;17.91;48.42;101256.97;5040074;28;20089;-82
2022/05/11 02:55:47;;;;;;;0.00;0.00;;;;;;;17.89;47.89;101253.47;5045952;28;20052;-82
2022/05/11 02:58:16;;;;;;;0.00;0.00;;;;;;;17.88;47.85;101257.09;5044714;28;20048;-82
2022/05/11 03:00:45;;;;;;;0.00;0.00;;;;;;;17.82;47.97;101257.34;5037111;28;20030;-82
2022/05/11 03:03:14;;;;;;;0.10;0.10;;;;;;;17.85;47.66;101252.75;5035177;28;20025;-82
2022/05/11 03:05:41;;;;;;;0.00;0.00;;;;;;;17.82;47.50;101249.31;5049291;28;20044;-82
2022/05/11 03:08:08;;;;;;;0.00;0.00;;;;;;;17.77;47.37;101247.72;5039149;28;20071;-82
2022/05/11 03:10:35;;;;;;;0.10;0.10;;;;;;;17.82;47.41;101246.63;5045261;28;20473;-82
2022/05/11 03:13:02;;;;;;;0.00;0.00;;;;;;;17.80;47.26;101249.38;5051171;28;20035;-82
2022/05/11 03:15:29;;;;;;;0.00;0.00;;;;;;;17.68;47.23;101245.41;5046059;28;20034;-82
2022/05/11 03:17:56;;;;;;;0.05;0.05;;;;;;;17.70;47.27;101243.56;5036058;28;20026;-82
2022/05/11 03:20:23;;;;;;;0.03;0.03;;;;;;;17.72;47.26;101238.13;5042638;28;20030;-82
2022/05/11 03:22:50;;;;;;;3.15;2.10;;;;;;;17.72;47.49;101238.13;5043041;28;20097;-82
2022/05/11 03:25:17;;;;;;;0.00;0.00;;;;;;;17.72;47.43;101239.00;5045635;28;20061;-82
2022/05/11 03:27:43;;;;;;;0.00;0.00;;;;;;;17.60;47.29;101236.88;5044914;28;20021;-82
2022/05/11 03:30:10;;;;;;;0.00;0.00;;;;;;;17.70;47.50;101230.16;5049716;28;20052;-82
2022/05/11 03:35:22;;;;;;;0.00;0.00;;;;;;;17.72;47.08;101228.28;5045021;28;20067;-82
2022/05/11 03:37:48;;;;;;;0.00;0.00;;;;;;;17.72;47.22;101225.63;5044226;28;20036;-81
2022/05/11 03:40:14;;;;;;;0.00;0.00;;;;;;;17.70;47.38;101215.91;5041867;28;20065;-82
2022/05/11 03:42:41;;;;;;;0.00;0.00;;;;;;;17.74;47.34;101220.19;5036296;28;20037;-82
2022/05/11 03:45:20;;;;;;;0.00;0.00;;;;;;;17.75;47.12;101220.09;5033841;28;20034;-82
2022/05/11 03:47:47;;;;;;;0.75;0.75;;;;;;;17.80;47.44;101222.59;5033129;28;20120;-82
2022/05/11 03:50:16;;;;;;;0.05;0.05;;;;;;;17.75;47.07;101214.75;5045033;28;20124;-82
2022/05/11 03:52:42;;;;;;;0.00;0.00;;;;;;;17.78;47.26;101219.09;5047839;28;20369;-82
2022/05/11 03:55:10;;;;;;;0.10;0.10;;;;;;;17.79;47.18;101219.06;5041921;28;20033;-82
2022/05/11 03:57:37;;;;;;;0.00;0.00;;;;;;;17.75;46.87;101214.75;5040387;28;20029;-83
2022/05/11 04:00:06;;;;;;;0.00;0.00;;;;;;;17.74;47.13;101213.00;5031898;28;20041;-83
2022/05/11 04:02:33;;;;;;;0.10;0.10;;;;;;;17.70;46.91;101211.41;5039824;28;20107;-82
2022/05/11 04:04:59;;;;;;;0.00;0.00;;;;;;;17.71;46.82;101205.09;5040594;28;20501;-82
2022/05/11 04:07:25;;;;;;;0.00;0.00;;;;;;;17.65;46.76;101194.66;5036868;28;20086;-82
2022/05/11 04:09:51;;;;;;;2.15;0.55;;;;;;;17.74;46.86;101196.91;5025216;28;20033;-81
2022/05/11 04:12:17;;;;;;;0.05;0.05;;;;;;;17.74;46.47;101191.56;5037896;28;20053;-82
2022/05/11 04:14:43;;;;;;;0.00;0.00;;;;;;;17.74;46.11;101204.09;5039673;28;20045;-82
2022/05/11 04:17:09;;;;;;;0.00;0.00;;;;;;;17.76;46.14;101200.41;5040403;28;20068;-82
2022/05/11 04:19:38;;;;;;;0.00;0.00;;;;;;;17.84;46.04;101200.06;5049208;28;20033;-81
2022/05/11 04:22:04;;;;;;;0.00;0.00;;;;;;;17.76;46.29;101205.78;5040182;28;20097;-82
2022/05/11 04:24:30;;;;;;;0.00;0.00;;;;;;;17.74;46.09;101202.28;5042091;28;20036;-82
2022/05/11 04:26:56;;;;;;;0.10;0.10;;;;;;;17.72;46.33;101203.28;5032742;28;20105;-82
2022/05/11 04:29:22;;;;;;;0.00;0.00;;;;;;;17.73;45.98;101208.59;5037387;28;20029;-83
2022/05/11 04:31:56;;;;;;;0.98;0.98;;;;;;;17.73;45.79;101195.19;5035982;28;20505;-83
2022/05/11 04:34:23;;;;;;;0.00;0.00;;;;;;;17.64;46.15;101195.59;5039184;28;20079;-82
2022/05/11 04:36:50;;;;;;;0.00;0.00;;;;;;;17.68;45.90;101197.19;5039601;28;20049;-83
2022/05/11 04:39:16;;;;;;;0.10;0.10;;;;;;;17.65;45.67;101200.03;5040610;28;20037;-82
2022/05/11 04:41:42;;;;;;;0.05;0.05;;;;;;;17.69;45.76;101212.34;5044809;28;20038;-82
2022/05/11 04:44:08;;;;;;;0.00;0.00;;;;;;;17.63;45.81;101215.28;5043365;28;20454;-81
2022/05/11 04:46:36;;;;;;;0.00;0.00;;;;;;;17.57;45.65;101215.53;5057456;28;20025;-81
2022/05/11 04:49:16;;;;;;;0.00;0.00;;;;;;;17.45;45.71;101211.59;5058472;28;20032;-81
2022/05/11 04:51:43;;;;;;;0.70;0.70;;;;;;;17.51;45.40;101214.03;5055054;28;20040;-81
2022/05/11 04:54:11;;;;;;;0.00;0.00;;;;;;;17.65;45.58;101218.78;5046605;28;20124;-81
2022/05/11 04:56:38;;;;;;;0.40;0.40;;;;;;;17.66;45.46;101207.13;5025917;28;20036;-81
2022/05/11 04:59:05;;;;;;;0.10;0.10;;;;;;;17.67;45.43;101219.59;5041321;28;20036;-81
2022/05/11 05:01:32;;;;;;;0.00;0.00;;;;;;;17.71;45.34;101207.78;5047281;28;20034;-81
2022/05/11 05:03:59;;;;;;;0.00;0.00;;;;;;;17.68;45.14;101207.91;5049915;28;20040;-81
2022/05/11 05:06:25;;;;;;;0.00;0.00;;;;;;;17.65;45.07;101202.69;5041140;28;20034;-82
2022/05/11 05:08:52;;;;;;;0.03;0.03;;;;;;;17.67;45.24;101195.47;5041787;28;20033;-81
2022/05/11 05:11:18;;;;;;;0.10;0.10;;;;;;;17.55;45.06;101202.22;5035069;28;20021;-82
2022/05/11 05:13:44;;;;;;;0.00;0.00;;;;;;;17.68;45.44;101201.69;5036210;28;20083;-82
2022/05/11 05:16:10;;;;;;;0.08;0.08;;;;;;;17.73;45.46;101216.66;5043702;28;20037;-81
2022/05/11 05:18:36;;;;;;;0.00;0.00;;;;;;;17.61;45.60;101217.19;5049007;28;20084;-81
2022/05/11 05:21:02;;;;;;;0.70;0.70;;;;;;;17.64;45.72;101217.03;5032880;28;20049;-82
2022/05/11 05:23:28;;;;;;;0.00;0.00;;;;;;;17.71;45.64;101210.47;5034453;28;20183;-82
2022/05/11 05:25:55;;;;;;;0.00;0.00;;;;;;;17.53;45.71;101213.94;5033584;28;20025;-82
2022/05/11 05:31:11;;;;;;;0.05;0.05;;;;;;;17.51;45.86;101210.47;5038744;28;20064;-83
2022/05/11 05:33:39;;;;;;;0.10;0.10;;;;;;;17.42;45.79;101219.75;5034712;28;20045;-83
2022/05/11 05:36:06;;;;;;;0.00;0.00;;;;;;;17.42;45.69;101217.06;5048302;28;20460;-83
2022/05/11 05:38:34;;;;;;;0.00;0.00;;;;;;;17.35;45.90;101227.19;5052515;28;20018;-83
2022/05/11 05:41:00;;;;;;;0.00;0.00;;;;;;;17.27;45.84;101218.59;5032520;28;20036;-83
2022/05/11 05:43:26;;;;;;;0.00;0.00;;;;;;;17.40;46.05;101225.19;5041500;28;20044;-83
2022/05/11 05:45:54;;;;;;;0.10;0.10;;;;;;;17.20;45.30;101217.16;5028194;28;20041;-82
2022/05/11 05:48:21;;;;;;;1.00;0.65;;;;;;;17.24;45.27;101229.47;5058623;28;20029;-84
2022/05/11 05:50:48;;;;;;;0.00;0.00;;;;;;;17.43;45.10;101217.03;5033268;28;20112;-82
2022/05/11 05:53:19;;;;;;;0.00;0.00;;;;;;;17.53;45.09;101225.53;5033382;28;20061;-82
2022/05/11 05:55:47;;;;;;;0.00;0.00;;;;;;;17.45;44.90;101217.81;5040541;28;20037;-82
2022/05/11 05:58:14;;;;;;;0.00;0.00;;;;;;;17.60;44.69;101228.81;5032565;28;20022;-82
2022/05/11 06:00:41;;;;;;;0.10;0.10;;;;;;;17.63;44.97;101220.63;5043819;28;20029;-83
2022/05/11 06:03:09;;;;;;;0.10;0.10;;;;;;;17.72;45.00;101224.72;5040256;28;20144;-84
2022/05/11 06:05:35;;;;;;;0.10;0.10;;;;;;;17.67;44.57;101219.59;5042799;28;20113;-85
2022/05/11 06:08:01;;;;;;;0.10;0.10;;;;;;;17.90;44.37;101213.19;5043353;28;20038;-84
2022/05/11 06:10:27;;;;;;;0.10;0.10;;;;;;;18.00;44.29;101218.19;5042769;28;20080;-86
2022/05/11 06:12:53;;;;;;;0.05;0.05;;;;;;;18.07;44.44;101214.28;5044774;28;20048;-86
2022/05/11 06:15:19;;;;;;;0.10;0.10;;;;;;;18.22;43.73;101218.09;5032889;28;20038;-86
2022/05/11 06:17:45;;;;;;;0.00;0.00;;;;;;;18.32;44.21;101214.03;5045064;28;20025;-86
2022/05/11 06:20:12;;;;;;;0.10;0.10;;;;;;;18.34;43.91;101201.38;5041680;28;20036;-86
2022/05/11 06:22:39;;;;;;;0.00;0.00;;;;;;;18.48;43.63;101208.81;5052195;22;20130;-82
2022/05/11 06:25:06;;;;;;;0.00;0.00;;;;;;;18.32;43.54;101219.38;5013741;28;20038;-85
2022/05/11 06:27:32;;;;;;;0.10;0.10;;;;;;;18.38;43.87;101213.75;5012010;28;20026;-83
2022/05/11 06:30:00;;;;;;;0.05;0.05;;;;;;;18.44;43.73;101217.94;5013259;28;20520;-82
2022/05/11 06:32:27;;;;;;;1.38;1.15;;;;;;;18.51;43.69;101213.16;5005180;28;20125;-83
2022/05/11 06:34:54;;;;;;;0.00;0.00;;;;;;;18.57;43.75;101208.34;5008395;28;20436;-83
2022/05/11 06:37:22;;;;;;;0.10;0.10;;;;;;;18.50;42.79;101206.91;5002287;28;20038;-83
2022/05/11 06:39:49;;;;;;;22.20;0.70;;;;;;;18.48;43.35;101210.59;5012292;28;20048;-82
2022/05/11 06:42:16;;;;;;;0.20;0.20;;;;;;;18.58;42.96;101209.25;5013396;28;20034;-82
2022/05/11 06:44:42;;;;;;;0.10;0.10;;;;;;;18.62;42.93;101210.84;5009596;28;20041;-83
2022/05/11 06:47:08;;;;;;;0.17;0.17;;;;;;;18.51;42.95;101211.34;5013465;28;20022;-82
2022/05/11 06:49:35;;;;;;;0.45;0.45;;;;;;;18.47;42.76;101216.91;5009471;28;20034;-83
2022/05/11 06:52:02;;;;;;;0.00;0.00;;;;;;;18.39;42.73;101209.22;5007182;28;20034;-83
2022/05/11 07:00:00;;;;;;;0.00;0.00;;;;;;;18.78;42.24;101205.59;5007874;28;20038;-83
2022/05/11 07:02:26;;;;;;;0.03;0.03;;;;;;;18.64;42.17;101208.97;5012605;28;20080;-84
2022/05/11 07:04:52;;;;;;;0.00;0.00;;;;;;;18.70;42.58;101214.00;5012288;28;20041;-83
2022/05/11 07:07:18;;;;;;;0.32;0.32;;;;;;;18.73;42.41;101211.19;5010220;28;20030;-82
2022/05/11 07:09:45;;;;;;;0.00;0.00;;;;;;;18.87;43.13;101205.13;5014224;28;20084;-83
2022/05/11 07:12:21;;;;;;;0.00;0.00;;;;;;;18.90;42.51;101206.78;5015288;28;20386;-83
2022/05/11 07:14:52;;;;;;;0.10;0.10;;;;;;;19.12;41.89;101192.34;5007751;28;20042;-82
2022/05/11 07:17:36;;;;;;;0.00;0.00;;;;;;;19.36;42.05;101201.81;5006528;28;20405;-83
2022/05/11 07:20:07;;;;;;;0.10;0.10;;;;;;;19.17;41.41;101195.66;5002756;28;20037;-83
2022/05/11 07:22:34;;;;;;;0.43;0.43;;;;;;;19.25;41.27;101204.19;5008575;28;20021;-83
2022/05/11 07:25:00;;;;;;;0.00;0.00;;;;;;;19.25;41.70;101198.81;5011709;28;20037;-83
2022/05/11 07:27:27;;;;;;;0.10;0.10;;;;;;;19.20;41.44;101191.00;5014893;28;20030;-84
2022/05/11 07:29:54;;;;;;;0.00;0.00;;;;;;;19.13;42.01;101183.31;5016965;28;20069;-82
2022/05/11 07:32:22;;;;;;;0.10;0.10;;;;;;;19.23;41.80;101182.78;5009867;28;20082;-84
2022/05/11 07:34:49;;;;;;;0.13;0.13;;;;;;;19.21;41.19;101184.66;5006905;28;20033;-84
2022/05/11 07:37:16;;;;;;;0.10;0.10;;;;;;;19.18;41.03;101192.91;5013439;28;20033;-83
2022/05/11 07:39:42;;;;;;;0.00;0.00;;;;;;;19.19;41.30;101180.31;5016073;28;20404;-83
2022/05/11 07:42:09;;;;;;;0.00;0.00;;;;;;;19.11;41.28;101179.88;5015841;28;20025;-83
2022/05/11 07:44:35;;;;;;;0.10;0.10;;;;;;;19.15;41.51;101187.69;5011452;28;20509;-82
2022/05/11 07:47:02;;;;;;;0.00;0.00;;;;;;;19.11;41.13;101195.97;5008386;28;20092;-83
2022/05/11 07:49:28;;;;;;;0.03;0.03;;;;;;;19.22;41.27;101182.88;5011334;28;20038;-83
2022/05/11 07:51:54;;;;;;;0.00;0.00;;;;;;;19.19;41.60;101191.06;5010053;28;20041;-84
2022/05/11 07:54:21;;;;;;;0.10;0.10;;;;;;;19.24;41.90;101180.97;5008688;28;20509;-83
2022/05/11 08:00:08;;;;;;;0.00;0.00;;;;;;;19.23;41.27;101188.16;5012870;28;20117;-84
2022/05/11 08:02:26;;;;;;;0.00;0.00;;;;;;;19.37;41.99;101186.59;5010803;28;20045;-84
2022/05/11 08:04:54;;;;;;;0.00;0.00;;;;;;;19.38;41.61;101189.19;5007445;28;20045;-85
2022/05/11 08:07:22;;;;;;;0.00;0.00;;;;;;;19.54;41.47;101183.03;5014566;28;20030;-85
2022/05/11 08:09:48;;;;;;;0.00;0.00;;;;;;;19.55;41.21;101198.19;5016239;28;20026;-85
2022/05/11 08:12:14;;;;;;;0.93;0.63;;;;;;;19.56;41.08;101200.81;5014174;28;20046;-85
2022/05/11 08:14:40;;;;;;;0.00;0.00;;;;;;;19.56;40.98;101194.56;5015332;28;20524;-85
2022/05/11 08:17:07;;;;;;;0.00;0.00;;;;;;;19.52;40.77;101185.78;5014399;28;20041;-85
2022/05/11 08:19:33;;;;;;;2.30;0.65;;;;;;;19.61;39.88;101183.56;5014130;28;20084;-86
2022/05/11 08:21:59;;;;;;;0.10;0.10;;;;;;;19.45;39.20;101181.69;5015999;28;20037;-85
2022/05/11 08:24:27;;;;;;;0.00;0.00;;;;;;;19.56;39.89;101192.75;5016041;28;20041;-85
2022/05/11 08:26:53;;;;;;;0.75;0.75;;;;;;;19.69;40.35;101186.72;5016101;28;20032;-85
2022/05/11 08:34:54;;;;;;;0.00;0.00;;;;;;;19.86;40.01;101189.41;5013802;28;20037;-85
2022/05/11 08:37:20;;;;;;;0.00;0.00;;;;;;;19.82;40.51;101187.78;5013328;28;20092;-86
2022/05/11 08:39:48;;;;;;;0.10;0.10;;;;;;;19.90;40.56;101205.38;5013739;28;20034;-86
2022/05/11 08:42:14;;;;;;;0.00;0.00;;;;;;;19.80;39.83;101210.34;5012643;28;20108;-86
2022/05/11 08:44:46;;;;;;;0.00;0.00;;;;;;;19.98;39.60;101201.31;5013137;28;20079;-85
2022/05/11 08:57:49;;;;;;;0.20;0.20;;;;;;;20.21;40.80;101188.44;5114042;27;1207147;-84
2022/05/11 09:00:18;;;;;;;0.03;0.03;;;;;;;20.37;40.45;101180.38;5113804;28;20035;-84
2022/05/11 09:05:26;;;;;;;0.10;0.10;;;;;;;20.51;40.93;101195.75;5038563;28;20430;-78
2022/05/11 09:07:54;;;;;;;0.10;0.10;;;;;;;20.41;40.83;101191.84;5019277;28;20041;-77
2022/05/11 09:10:26;;;;;;;0.10;0.10;;;;;;;20.56;41.00;101204.47;5015640;28;20038;-78
2022/05/11 09:12:59;;;;;;;0.00;0.00;;;;;;;20.38;41.59;101208.19;5021985;28;20045;-78
2022/05/11 09:15:47;;;;;;;0.90;0.90;;;;;;;20.47;41.56;101221.09;5026596;28;20030;-80
2022/05/11 09:18:13;;;;;;;1.27;1.17;;;;;;;20.40;42.02;101192.78;5033098;28;20137;-79
2022/05/11 09:20:55;;;;;;;0.05;0.05;;;;;;;20.43;41.18;101188.09;5027613;28;20044;-77
2022/05/11 09:23:43;;;;;;;0.00;0.00;;;;;;;20.67;41.67;101196.63;5026281;28;20048;-78
2022/05/11 09:26:14;;;;;;;0.10;0.10;;;;;;;20.63;41.69;101203.13;5041602;28;20037;-79
2022/05/11 09:28:45;;;;;;;0.10;0.10;;;;;;;20.73;41.57;101191.88;5030801;28;20041;-77
2022/05/11 09:31:23;;;;;;;0.10;0.10;;;;;;;20.78;41.17;101203.25;5029193;28;20444;-77
2022/05/11 09:34:07;;;;;;;0.10;0.10;;;;;;;20.92;41.21;101195.25;5033422;28;20034;-77
2022/05/11 09:36:36;;;;;;;0.05;0.05;;;;;;;20.91;40.66;101192.63;5023822;28;20030;-78
2022/05/11 09:39:13;;;;;;;0.00;0.00;;;;;;;20.95;41.04;101196.91;5028556;28;20068;-78
2022/05/11 09:41:41;;;;;;;0.00;0.00;;;;;;;20.91;40.46;101206.09;5044606;28;20025;-78
2022/05/11 09:44:27;;;;;;;0.20;0.20;;;;;;;21.10;39.54;101196.00;5051557;28;20025;-78
2022/05/11 09:46:55;;;;;;;0.08;0.08;;;;;;;21.21;40.81;101192.69;5038252;28;20034;-77
2022/05/11 09:51:59;;;;;;;0.20;0.20;;;;;;;21.43;40.78;101186.88;5085305;27;20181;-77
2022/05/11 09:54:33;;;;;;;0.00;0.00;;;;;;;21.47;39.40;101196.50;5067973;28;20082;-76
2022/05/11 09:57:04;;;;;;;0.10;0.10;;;;;;;21.37;39.55;101191.75;5050590;28;20525;-78
2022/05/11 10:05:08;;;;;;;0.00;0.00;;;;;;;20.88;40.01;101204.47;5102737;27;20403;-76
2022/05/11 10:07:51;;;;;;;0.03;0.03;;;;;;;21.04;39.73;101204.44;5076657;28;20032;-76
2022/05/11 10:10:27;;;;;;;0.52;0.52;;;;;;;21.06;39.65;101193.56;5075936;28;20029;-77
2022/05/11 10:13:11;;;;;;;0.00;0.00;;;;;;;21.09;39.42;101201.47;5059934;28;20387;-76
2022/05/11 10:24:26;;;;;;;0.00;0.00;;;;;;;21.10;38.68;101197.84;5118166;27;20419;-79
2022/05/11 10:30:06;;;;;;;0.00;0.00;;;;;;;21.30;38.37;101193.97;5135238;27;20449;-82
2022/05/11 10:38:28;;;;;;;2.83;0.63;;;;;;;21.59;37.90;101197.59;5096971;27;20397;-81
2022/05/11 10:41:19;;;;;;;0.10;0.10;;;;;;;21.72;36.89;101202.25;5070508;28;20043;-81
2022/05/11 10:49:34;;;;;;;0.00;0.00;;;;;;;22.00;35.58;101184.38;5117220;27;20420;-82
2022/05/11 10:52:28;;;;;;;0.10;0.10;;;;;;;22.10;36.44;101188.22;5121676;28;20036;-83
2022/05/11 11:01:00;;;;;;;0.00;0.00;;;;;;;22.32;34.73;101181.44;5150444;27;20115;-81
2022/05/11 11:04:06;;;;;;;0.00;0.00;;;;;;;22.33;34.77;101183.16;5147988;27;20123;-80
2022/05/11 11:14:35;;;;;;;0.10;0.10;;;;;;;22.43;34.31;101181.63;5135445;27;20379;-80
2022/05/11 11:17:04;;;;;;;0.05;0.05;;;;;;;22.49;34.30;101180.38;5109670;28;20042;-80
2022/05/11 11:19:31;;;;;;;0.10;0.10;;;;;;;22.47;33.82;101180.50;5101911;28;20107;-80
2022/05/11 11:22:00;;;;;;;0.08;0.08;;;;;;;22.44;32.96;101183.38;5100153;28;20089;-80
2022/05/11 11:24:28;;;;;;;0.10;0.10;;;;;;;22.50;33.29;101174.03;5095772;28;20027;-80
2022/05/11 11:26:57;;;;;;;0.00;0.00;;;;;;;22.43;32.76;101174.41;5091734;28;20038;-80
2022/05/11 11:34:48;;;;;;;0.15;0.15;;;;;;;22.52;33.05;101164.84;5141720;27;20780;-81
2022/05/11 11:37:37;;;;;;;0.68;0.68;;;;;;;22.67;32.98;101159.38;5143195;28;20061;-80
2022/05/11 11:40:23;;;;;;;0.45;0.45;;;;;;;22.60;32.53;101142.75;5143172;27;20046;-80
2022/05/11 11:42:51;;;;;;;0.10;0.10;;;;;;;22.52;32.17;101140.56;5142236;27;20024;-80
2022/05/11 11:48:24;;;;;;;0.10;0.10;;;;;;;23.12;33.87;101143.78;5130477;27;1178007;-79
2022/05/11 11:50:58;;;;;;;0.10;0.10;;;;;;;23.24;32.39;101129.44;5131375;27;20031;-79
2022/05/11 12:16:24;;;;;;;0.10;0.10;;;;;;;23.82;33.08;101136.28;5080941;28;20028;-81
2022/05/11 12:18:50;;;;;;;0.17;0.17;;;;;;;24.00;32.87;101118.75;5081825;28;20079;-80
2022/05/11 12:21:34;;;;;;;0.10;0.10;;;;;;;24.00;32.59;101117.88;5079999;28;20025;-81
2022/05/11 12:24:04;;;;;;;0.10;0.10;;;;;;;23.88;32.84;101119.59;5072836;22;20041;-80
2022/05/11 12:26:39;;;;;;;0.00;0.00;;;;;;;24.01;32.60;101115.06;5072475;28;20051;-80
2022/05/11 12:32:01;;;;;;;0.00;0.00;;;;;;;24.53;32.90;101109.47;5063057;28;20039;-79
2022/05/11 12:34:29;;;;;;;0.30;0.30;;;;;;;24.58;32.74;101112.69;5056283;28;20184;-80
2022/05/11 12:36:56;;;;;;;0.10;0.10;;;;;;;24.66;32.81;101109.44;5070865;28;20021;-78
2022/05/11 12:39:32;;;;;;;0.10;0.10;;;;;;;24.55;32.50;101108.38;5053444;28;20115;-80
2022/05/11 12:42:00;;;;;;;0.15;0.15;;;;;;;24.51;32.60;101096.06;5071687;28;20371;-80
2022/05/11 12:44:30;;;;;;;0.43;0.43;;;;;;;24.59;32.66;101103.59;5071840;28;20040;-80
2022/05/11 12:46:59;;;;;;;4.70;0.73;;;;;;;24.72;33.02;101098.13;5071986;28;20035;-79
2022/05/11 12:49:26;;;;;;;0.52;0.52;;;;;;;24.68;33.24;101110.19;5072063;28;20067;-80
2022/05/11 12:51:55;;;;;;;0.00;0.00;;;;;;;24.68;32.90;101104.78;5071444;28;20449;-81
2022/05/11 12:54:26;;;;;;;0.15;0.15;;;;;;;24.62;33.50;101103.34;5063010;28;20543;-81
2022/05/11 12:57:03;;;;;;;0.10;0.10;;;;;;;24.76;34.09;101115.03;5052498;28;20021;-81
2022/05/11 12:59:33;;;;;;;0.08;0.08;;;;;;;24.60;33.05;101099.03;5052385;28;20507;-80
2022/05/11 13:04:55;;;;;;;0.10;0.10;;;;;;;24.81;33.22;101102.00;5135300;27;20899;-81
2022/05/11 13:07:27;;;;;;;0.10;0.10;;;;;;;24.98;33.70;101087.16;5134762;28;20039;-80
2022/05/11 13:09:55;;;;;;;;;;;;;;;25.11;33.60;101093.38;5134712;28;20046;-81
2022/05/11 13:12:22;;;;;;;0.40;0.40;;;;;;;25.13;33.73;101091.38;5133764;27;19915;-80
2022/05/11 13:14:52;;;;;;;0.00;0.00;;;;;;;25.24;34.33;101092.41;5134340;27;20031;-81
2022/05/11 13:17:23;;;;;;;0.08;0.08;;;;;;;25.32;33.10;101081.81;5134490;27;20026;-81
2022/05/11 13:20:19;;;;;;;0.10;0.10;;;;;;;25.36;33.93;101075.16;5133923;28;20031;-79
2022/05/11 13:22:57;;;;;;;0.10;0.10;;;;;;;25.42;34.12;101076.53;5132902;27;20172;-80
2022/05/11 13:25:46;;;;;;;0.03;0.03;;;;;;;25.49;33.94;101086.78;5134548;27;20046;-81
2022/05/11 13:28:24;;;;;;;0.10;0.10;;;;;;;25.47;34.16;101067.06;5133080;27;20051;-81
2022/05/11 13:30:54;;;;;;;0.00;0.00;;;;;;;25.12;34.06;101073.41;5133417;28;20020;-81
2022/05/11 13:33:40;;;;;;;0.00;0.00;;;;;;;25.41;33.99;101059.44;5133641;28;20046;-80
2022/05/11 13:36:22;;;;;;;0.20;0.20;;;;;;;25.59;33.28;101053.50;5132761;28;20023;-80
2022/05/11 13:38:51;;;;;;;0.10;0.10;;;;;;;25.64;33.60;101056.72;5131976;27;20023;-80
2022/05/11 13:41:22;;;;;;;0.10;0.10;;;;;;;25.70;33.50;101055.38;5137297;27;20035;-80